createdAt,value
2022-12-23T00:00:45.195Z,24.13
2022-12-23T00:03:12.761Z,23.05
2022-12-23T00:05:40.593Z,25.73
2022-12-23T00:08:08.602Z,27.75
2022-12-23T00:10:39.280Z,30.80
2022-12-23T00:13:25.951Z,27.75
2022-12-23T00:16:01.477Z,36.15
2022-12-23T00:18:28.812Z,25.63
2022-12-23T00:21:04.790Z,27.15
2022-12-23T00:23:39.866Z,28.80
2022-12-23T00:26:07.838Z,26.83
2022-12-23T00:28:35.107Z,29.23
2022-12-23T00:31:03.380Z,28.85
2022-12-23T00:33:32.056Z,30.67
2022-12-23T00:35:59.381Z,29.15
2022-12-23T00:38:45.379Z,29.08
2022-12-23T00:41:36.081Z,29.92
2022-12-23T00:44:04.129Z,30.10
2022-12-23T00:46:31.417Z,31.88
2022-12-23T00:49:17.559Z,29.20
2022-12-23T00:51:44.879Z,27.05
2022-12-23T00:54:12.156Z,24.15
2022-12-23T00:56:39.597Z,23.83
2022-12-23T00:59:06.895Z,24.95
2022-12-23T01:01:52.970Z,32.08
2022-12-23T01:04:39.577Z,23.75
2022-12-23T01:07:07.081Z,26.77
2022-12-23T01:09:34.508Z,29.87
2022-12-23T01:12:01.869Z,28.10
2022-12-23T01:14:29.196Z,27.63
2022-12-23T01:16:56.505Z,25.23
2022-12-23T01:19:23.918Z,26.58
2022-12-23T01:21:51.189Z,25.73
2022-12-23T01:24:18.507Z,24.83
2022-12-23T01:26:45.825Z,27.17
2022-12-23T01:29:13.083Z,28.65
2022-12-23T01:31:40.575Z,27.83
2022-12-23T01:34:07.992Z,33.60
2022-12-23T01:36:35.252Z,35.97
2022-12-23T01:39:02.629Z,33.75
2022-12-23T01:41:50.575Z,38.53
2022-12-23T01:44:36.779Z,32.60
2022-12-23T01:47:05.178Z,94.15
2022-12-23T01:49:32.476Z,29.70
2022-12-23T01:51:59.733Z,21.00
2022-12-23T01:54:27.043Z,33.58
2022-12-23T01:56:54.386Z,114.18
2022-12-23T01:59:40.258Z,34.93
2022-12-23T02:02:26.216Z,29.25
2022-12-23T02:04:54.006Z,18.02
2022-12-23T02:07:40.317Z,24.42
2022-12-23T02:10:08.283Z,14.75
2022-12-23T02:12:41.731Z,17.08
2022-12-23T02:15:27.460Z,18.90
2022-12-23T02:17:54.674Z,15.80
2022-12-23T02:20:21.891Z,14.45
2022-12-23T02:22:49.165Z,14.27
2022-12-23T02:25:25.377Z,14.27
2022-12-23T02:28:06.577Z,15.50
2022-12-23T02:30:43.013Z,13.75
2022-12-23T02:33:13.399Z,17.08
2022-12-23T02:35:51.939Z,12.43
2022-12-23T02:38:32.532Z,12.63
2022-12-23T02:41:05.679Z,14.18
2022-12-23T02:43:52.009Z,15.30
2022-12-23T02:46:24.871Z,15.35
2022-12-23T02:49:10.410Z,18.83
2022-12-23T02:51:40.603Z,17.85
2022-12-23T02:54:10.076Z,17.42
2022-12-23T02:56:39.009Z,14.63
2022-12-23T02:59:09.386Z,17.05
2022-12-23T03:01:37.776Z,16.98
2022-12-23T03:04:06.779Z,18.70
2022-12-23T03:06:38.647Z,16.48
2022-12-23T03:09:05.934Z,18.20
2022-12-23T03:11:40.311Z,13.18
2022-12-23T03:14:18.389Z,15.02
2022-12-23T03:17:01.155Z,16.30
2022-12-23T03:19:32.775Z,13.85
2022-12-23T03:21:59.977Z,15.13
2022-12-23T03:24:27.203Z,14.73
2022-12-23T03:27:10.744Z,13.38
2022-12-23T03:29:51.080Z,13.17
2022-12-23T03:32:20.286Z,12.13
2022-12-23T03:34:48.963Z,11.20
2022-12-23T03:37:18.027Z,12.30
2022-12-23T03:39:50.422Z,12.82
2022-12-23T03:42:21.841Z,10.23
2022-12-23T03:45:19.360Z,14.00
2022-12-23T03:47:44.584Z,13.75
2022-12-23T03:50:12.805Z,13.98
2022-12-23T03:52:42.124Z,15.90
2022-12-23T03:55:12.444Z,16.13
2022-12-23T03:57:43.208Z,16.20
2022-12-23T04:00:10.833Z,13.82
2022-12-23T04:03:16.833Z,13.93
2022-12-23T04:05:46.477Z,16.02
2022-12-23T04:08:20.208Z,14.75
2022-12-23T04:10:47.788Z,14.57
2022-12-23T04:13:15.125Z,15.52
2022-12-23T04:15:43.117Z,16.40
2022-12-23T04:18:11.246Z,15.38
2022-12-23T04:20:38.513Z,14.68
2022-12-23T04:23:06.122Z,17.08
2022-12-23T04:25:33.382Z,16.30
2022-12-23T04:28:00.705Z,14.85
2022-12-23T04:30:33.596Z,17.83
2022-12-23T04:33:02.056Z,15.50
2022-12-23T04:35:29.323Z,14.40
2022-12-23T04:37:56.589Z,16.13
2022-12-23T04:40:23.867Z,18.30
2022-12-23T04:42:51.152Z,15.18
2022-12-23T04:45:18.404Z,17.10
2022-12-23T04:47:45.695Z,14.18
2022-12-23T04:50:16.887Z,17.05
2022-12-23T04:52:44.581Z,13.93
2022-12-23T04:55:11.935Z,14.73
2022-12-23T04:57:39.408Z,17.25
2022-12-23T05:00:26.781Z,12.25
2022-12-23T05:02:54.225Z,12.98
2022-12-23T05:05:21.709Z,13.45
2022-12-23T05:07:50.365Z,11.75
2022-12-23T05:10:17.759Z,12.60
2022-12-23T05:12:45.029Z,11.38
2022-12-23T05:15:12.311Z,10.70
2022-12-23T05:17:39.560Z,13.90
2022-12-23T05:20:07.222Z,15.93
2022-12-23T05:22:34.455Z,12.93
2022-12-23T05:25:01.855Z,15.25
2022-12-23T05:27:29.105Z,14.73
2022-12-23T05:29:56.360Z,15.90
2022-12-23T05:32:23.696Z,16.17
2022-12-23T05:34:50.904Z,17.35
2022-12-23T05:37:18.371Z,14.35
2022-12-23T05:39:45.795Z,16.77
2022-12-23T05:42:13.723Z,14.45
2022-12-23T05:44:40.949Z,21.23
2022-12-23T05:47:08.719Z,18.80
2022-12-23T05:49:36.436Z,15.32
2022-12-23T05:52:03.656Z,15.85
2022-12-23T05:54:31.045Z,16.40
2022-12-23T05:56:58.332Z,17.58
2022-12-23T05:59:30.730Z,17.57
2022-12-23T06:01:58.914Z,18.80
2022-12-23T06:04:26.503Z,16.38
2022-12-23T06:06:53.945Z,17.23
2022-12-23T06:09:21.207Z,17.40
2022-12-23T06:11:48.542Z,18.35
2022-12-23T06:14:15.835Z,16.77
2022-12-23T06:16:43.171Z,17.70
2022-12-23T06:19:10.443Z,14.77
2022-12-23T06:21:37.715Z,17.25
2022-12-23T06:24:05.126Z,17.90
2022-12-23T06:26:33.651Z,19.85
2022-12-23T06:29:00.907Z,16.55
2022-12-23T06:31:28.299Z,17.85
2022-12-23T06:33:55.607Z,15.43
2022-12-23T06:36:22.988Z,15.83
2022-12-23T06:38:50.380Z,18.50
2022-12-23T06:41:18.049Z,16.60
2022-12-23T06:43:48.687Z,15.32
2022-12-23T06:46:18.490Z,15.90
2022-12-23T06:48:45.820Z,15.60
2022-12-23T06:51:13.173Z,18.70
2022-12-23T06:53:40.449Z,16.38
2022-12-23T06:56:07.744Z,17.60
2022-12-23T06:58:34.970Z,16.73
2022-12-23T07:01:02.276Z,18.07
2022-12-23T07:03:29.651Z,15.60
2022-12-23T07:05:56.952Z,14.30
2022-12-23T07:08:24.128Z,18.73
2022-12-23T07:10:51.459Z,16.95
2022-12-23T07:13:18.658Z,13.88
2022-12-23T07:15:45.989Z,17.05
2022-12-23T07:18:13.256Z,18.80
2022-12-23T07:20:40.534Z,15.93
2022-12-23T07:23:07.813Z,16.00
2022-12-23T07:25:35.055Z,14.27
2022-12-23T07:28:02.382Z,16.60
2022-12-23T07:30:29.586Z,16.52
2022-12-23T07:32:57.043Z,14.85
2022-12-23T07:35:24.251Z,15.70
2022-12-23T07:37:52.872Z,15.23
2022-12-23T07:40:20.283Z,16.33
2022-12-23T07:42:50.816Z,15.38
2022-12-23T07:45:18.212Z,15.85
2022-12-23T07:47:45.652Z,16.73
2022-12-23T07:50:13.251Z,15.73
2022-12-23T07:52:40.511Z,13.32
2022-12-23T07:55:07.981Z,12.90
2022-12-23T07:57:38.316Z,15.68
2022-12-23T08:00:07.122Z,13.20
2022-12-23T08:02:39.883Z,15.27
2022-12-23T08:05:07.954Z,17.17
2022-12-23T08:07:35.271Z,14.52
2022-12-23T08:10:02.631Z,15.30
2022-12-23T08:12:29.914Z,17.75
2022-12-23T08:14:57.194Z,18.48
2022-12-23T08:17:27.238Z,19.20
2022-12-23T08:19:54.555Z,18.73
2022-12-23T08:22:21.932Z,19.52
2022-12-23T08:24:49.241Z,21.17
2022-12-23T08:27:16.506Z,20.27
2022-12-23T08:29:43.975Z,31.90
2022-12-23T08:32:11.313Z,30.50
2022-12-23T08:34:38.722Z,47.30
2022-12-23T08:37:06.031Z,39.10
2022-12-23T08:39:33.540Z,45.93
2022-12-23T08:42:00.761Z,39.53
2022-12-23T08:44:28.231Z,43.30
2022-12-23T08:46:56.120Z,42.55
2022-12-23T08:49:23.811Z,48.85
2022-12-23T08:51:51.284Z,44.45
2022-12-23T08:54:20.342Z,41.05
2022-12-23T08:56:47.696Z,49.83
2022-12-23T08:59:19.285Z,38.90
2022-12-23T09:01:47.367Z,44.55
2022-12-23T09:04:14.841Z,40.72
2022-12-23T09:06:42.703Z,43.05
2022-12-23T09:09:11.825Z,51.58
2022-12-23T09:11:39.131Z,39.67
2022-12-23T09:14:08.677Z,37.38
2022-12-23T09:16:36.220Z,35.58
2022-12-23T09:19:03.816Z,33.97
2022-12-23T09:21:31.095Z,32.03
2022-12-23T09:23:58.397Z,33.83
2022-12-23T09:26:26.999Z,31.30
2022-12-23T09:28:54.550Z,28.50
2022-12-23T09:31:22.226Z,28.67
2022-12-23T09:33:50.593Z,24.65
2022-12-23T09:36:18.563Z,22.55
2022-12-23T09:38:45.939Z,23.58
2022-12-23T09:41:13.237Z,24.75
2022-12-23T09:43:45.394Z,22.52
2022-12-23T09:46:23.522Z,23.95
2022-12-23T09:48:59.809Z,25.42
2022-12-23T09:51:28.174Z,22.50
2022-12-23T09:53:59.750Z,22.85
2022-12-23T09:56:27.235Z,21.67
2022-12-23T09:59:02.257Z,20.38
2022-12-23T10:01:47.718Z,25.88
2022-12-23T10:04:30.577Z,24.85
2022-12-23T10:07:03.893Z,20.30
2022-12-23T10:09:37.910Z,24.35
2022-12-23T10:12:14.982Z,29.25
2022-12-23T10:14:44.091Z,23.42
2022-12-23T10:17:26.387Z,20.48
2022-12-23T10:19:54.496Z,23.23
2022-12-23T10:22:27.285Z,27.45
2022-12-23T10:24:56.601Z,29.13
2022-12-23T10:27:26.038Z,28.75
2022-12-23T10:29:53.344Z,34.00
2022-12-23T10:32:26.864Z,34.70
2022-12-23T10:34:54.073Z,35.50
2022-12-23T10:37:24.580Z,41.55
2022-12-23T10:40:04.111Z,39.50
2022-12-23T10:42:31.379Z,46.67
2022-12-23T10:45:05.123Z,46.03
2022-12-23T10:47:52.976Z,46.25
2022-12-23T10:50:26.461Z,45.13
2022-12-23T10:52:55.651Z,47.15
2022-12-23T10:55:33.513Z,44.85
2022-12-23T10:58:15.676Z,50.13
2022-12-23T11:00:46.082Z,34.65
2022-12-23T11:03:19.509Z,39.67
2022-12-23T11:05:49.787Z,35.40
2022-12-23T11:08:17.033Z,32.40
2022-12-23T11:10:44.541Z,37.38
2022-12-23T11:13:12.314Z,35.38
2022-12-23T11:15:41.446Z,37.95
2022-12-23T11:18:14.794Z,34.45
2022-12-23T11:20:43.043Z,36.20
2022-12-23T11:23:25.421Z,40.60
2022-12-23T11:26:00.827Z,41.50
2022-12-23T11:28:28.605Z,37.72
2022-12-23T11:31:09.556Z,39.10
2022-12-23T11:33:39.667Z,43.38
2022-12-23T11:36:25.912Z,41.13
2022-12-23T11:39:17.097Z,38.30
2022-12-23T11:41:45.758Z,43.95
2022-12-23T11:44:20.919Z,43.78
2022-12-23T11:46:48.317Z,44.20
2022-12-23T11:49:15.579Z,46.30
2022-12-23T11:51:43.944Z,38.85
2022-12-23T11:54:19.210Z,39.47
2022-12-23T11:56:48.860Z,40.67
2022-12-23T11:59:27.015Z,45.28
2022-12-23T12:01:54.690Z,43.28
2022-12-23T12:04:23.912Z,41.65
2022-12-23T12:06:56.344Z,41.38
2022-12-23T12:09:24.573Z,43.25
2022-12-23T12:12:09.135Z,44.75
2022-12-23T12:14:42.308Z,40.53
2022-12-23T12:17:17.865Z,41.78
2022-12-23T12:20:04.902Z,38.67
2022-12-23T12:22:50.130Z,44.50
2022-12-23T12:25:19.523Z,43.67
2022-12-23T12:27:50.654Z,42.27
2022-12-23T12:30:21.815Z,39.05
2022-12-23T12:33:21.759Z,35.80
2022-12-23T12:35:53.743Z,35.92
2022-12-23T12:38:26.847Z,37.85
2022-12-23T12:40:59.648Z,40.33
2022-12-23T12:43:32.120Z,28.52
2022-12-23T12:45:59.395Z,33.90
2022-12-23T12:48:33.181Z,31.80
2022-12-23T12:51:03.382Z,31.92
2022-12-23T12:53:31.378Z,35.03
2022-12-23T12:56:03.370Z,30.65
2022-12-23T12:58:31.163Z,29.63
2022-12-23T13:01:13.100Z,35.03
2022-12-23T13:03:53.054Z,33.45
2022-12-23T13:06:26.385Z,24.58
2022-12-23T13:08:58.623Z,26.42
2022-12-23T13:11:38.629Z,28.02
2022-12-23T13:14:17.058Z,32.05
2022-12-23T13:16:58.885Z,24.60
2022-12-23T13:19:26.185Z,25.57
2022-12-23T13:21:59.550Z,26.00
2022-12-23T13:24:43.826Z,22.50
2022-12-23T13:27:20.670Z,26.88
2022-12-23T13:29:56.168Z,22.98
2022-12-23T13:32:37.387Z,26.63
2022-12-23T13:35:04.715Z,25.90
2022-12-23T13:37:46.660Z,21.10
2022-12-23T13:40:16.929Z,24.23
2022-12-23T13:42:46.870Z,19.23
2022-12-23T13:45:15.716Z,20.80
2022-12-23T13:47:46.100Z,18.30
2022-12-23T13:50:16.485Z,21.45
2022-12-23T13:52:55.889Z,20.45
2022-12-23T13:55:36.436Z,18.20
2022-12-23T13:58:14.487Z,18.03
2022-12-23T14:00:41.875Z,18.73
2022-12-23T14:03:14.988Z,17.83
2022-12-23T14:05:45.295Z,18.10
2022-12-23T14:08:21.917Z,17.60
2022-12-23T14:10:55.475Z,16.23
2022-12-23T14:13:24.628Z,17.55
2022-12-23T14:16:03.908Z,17.95
2022-12-23T14:18:34.364Z,17.90
2022-12-23T14:21:13.349Z,18.92
2022-12-23T14:23:43.636Z,20.07
2022-12-23T14:26:26.248Z,16.38
2022-12-23T14:28:53.653Z,16.65
2022-12-23T14:31:31.830Z,17.58
2022-12-23T14:34:25.660Z,17.95
2022-12-23T14:37:12.259Z,14.30
2022-12-23T14:39:39.490Z,15.35
2022-12-23T14:42:14.832Z,14.20
2022-12-23T14:44:46.368Z,17.17
2022-12-23T14:47:31.972Z,14.88
2022-12-23T14:50:19.208Z,15.47
2022-12-23T14:52:48.443Z,15.10
2022-12-23T14:55:30.899Z,14.13
2022-12-23T14:58:18.052Z,14.48
2022-12-23T15:00:46.858Z,19.08
2022-12-23T15:03:14.289Z,14.73
2022-12-23T15:05:41.673Z,25.25
2022-12-23T15:08:27.342Z,14.48
2022-12-23T15:10:54.868Z,16.20
2022-12-23T15:13:23.413Z,16.65
2022-12-23T15:16:00.979Z,16.03
2022-12-23T15:18:29.235Z,15.77
2022-12-23T15:21:13.088Z,15.85
2022-12-23T15:23:48.494Z,16.15
2022-12-23T15:26:15.939Z,16.52
2022-12-23T15:28:43.240Z,16.17
2022-12-23T15:31:23.683Z,18.63
2022-12-23T15:34:02.697Z,16.60
2022-12-23T15:36:35.515Z,16.65
2022-12-23T15:39:04.379Z,16.92
2022-12-23T15:41:31.636Z,18.37
2022-12-23T15:44:01.603Z,17.80
2022-12-23T15:46:30.660Z,18.17
2022-12-23T15:48:58.576Z,14.60
2022-12-23T15:51:50.121Z,16.58
2022-12-23T15:54:30.695Z,15.00
2022-12-23T15:56:59.473Z,14.73
2022-12-23T15:59:32.562Z,15.15
2022-12-23T16:02:00.172Z,13.57
2022-12-23T16:04:28.705Z,15.68
2022-12-23T16:06:56.497Z,11.30
2022-12-23T16:09:26.954Z,12.07
2022-12-23T16:11:56.713Z,9.77
2022-12-23T16:14:24.603Z,11.75
2022-12-23T16:16:52.984Z,10.00
2022-12-23T16:19:39.145Z,12.80
2022-12-23T16:22:07.819Z,13.18
2022-12-23T16:24:35.279Z,12.77
2022-12-23T16:27:02.757Z,15.43
2022-12-23T16:29:33.415Z,18.45
2022-12-23T16:32:02.363Z,14.93
2022-12-23T16:34:31.983Z,13.20
2022-12-23T16:36:59.322Z,23.95
2022-12-23T16:39:26.644Z,15.75
2022-12-23T16:41:53.849Z,13.20
2022-12-23T16:44:21.144Z,13.93
2022-12-23T16:46:50.363Z,14.35
2022-12-23T16:49:25.525Z,15.88
2022-12-23T16:51:56.955Z,16.65
2022-12-23T16:54:24.196Z,16.95
2022-12-23T16:56:51.498Z,16.55
2022-12-23T16:59:19.830Z,14.18
2022-12-23T17:01:48.695Z,12.65
2022-12-23T17:04:16.111Z,11.68
2022-12-23T17:06:43.409Z,12.75
2022-12-23T17:09:11.487Z,13.70
2022-12-23T17:11:40.946Z,11.85
2022-12-23T17:14:15.807Z,11.30
2022-12-23T17:16:43.575Z,11.15
2022-12-23T17:19:11.494Z,11.35
2022-12-23T17:21:39.142Z,13.33
2022-12-23T17:24:09.856Z,14.30
2022-12-23T17:26:37.144Z,12.07
2022-12-23T17:29:05.139Z,13.88
2022-12-23T17:31:33.040Z,13.57
2022-12-23T17:34:00.599Z,15.90
2022-12-23T17:36:27.922Z,13.05
2022-12-23T17:38:55.239Z,13.95
2022-12-23T17:41:28.419Z,13.32
2022-12-23T17:43:55.860Z,13.85
2022-12-23T17:46:23.495Z,14.57
2022-12-23T17:48:51.217Z,14.70
2022-12-23T17:51:19.775Z,15.40
2022-12-23T17:53:51.591Z,11.32
2022-12-23T17:56:22.799Z,19.23
2022-12-23T17:58:50.787Z,27.23
2022-12-23T18:01:19.800Z,22.90
2022-12-23T18:03:47.663Z,21.40
2022-12-23T18:06:16.179Z,25.38
2022-12-23T18:08:43.566Z,20.13
2022-12-23T18:11:19.591Z,25.90
2022-12-23T18:13:47.286Z,28.65
2022-12-23T18:16:14.625Z,39.17
2022-12-23T18:18:46.640Z,34.38
2022-12-23T18:21:18.000Z,33.80
2022-12-23T18:23:45.351Z,37.88
2022-12-23T18:26:15.926Z,38.47
2022-12-23T18:28:43.649Z,34.50
2022-12-23T18:31:15.742Z,43.30
2022-12-23T18:33:43.104Z,45.47
2022-12-23T18:36:30.457Z,37.00
2022-12-23T18:38:58.044Z,49.90
2022-12-23T18:41:25.847Z,40.72
2022-12-23T18:43:53.661Z,40.30
2022-12-23T18:46:21.446Z,49.33
2022-12-23T18:48:48.782Z,29.23
2022-12-23T18:51:17.300Z,28.80
2022-12-23T18:53:44.681Z,39.17
2022-12-23T18:56:13.923Z,38.90
2022-12-23T18:58:41.273Z,36.28
2022-12-23T19:01:12.913Z,35.50
2022-12-23T19:03:40.624Z,43.65
2022-12-23T19:06:08.769Z,34.10
2022-12-23T19:08:36.946Z,38.38
2022-12-23T19:11:10.412Z,38.10
2022-12-23T19:13:37.723Z,34.27
2022-12-23T19:16:05.202Z,47.72
2022-12-23T19:18:32.504Z,42.13
2022-12-23T19:21:03.653Z,37.45
2022-12-23T19:23:30.916Z,34.53
2022-12-23T19:25:58.213Z,42.30
2022-12-23T19:28:25.646Z,34.55
2022-12-23T19:30:52.968Z,37.50
2022-12-23T19:33:20.332Z,30.30
2022-12-23T19:35:47.672Z,40.72
2022-12-23T19:38:14.963Z,36.50
2022-12-23T19:40:42.254Z,42.95
2022-12-23T19:43:09.483Z,41.38
2022-12-23T19:45:36.778Z,33.13
2022-12-23T19:48:04.139Z,20.10
2022-12-23T19:50:31.489Z,31.77
2022-12-23T19:52:58.790Z,38.22
2022-12-23T19:55:26.036Z,31.27
2022-12-23T19:57:53.347Z,21.02
2022-12-23T20:00:20.672Z,33.95
2022-12-23T20:02:50.150Z,27.57
2022-12-23T20:05:19.762Z,34.15
2022-12-23T20:07:47.031Z,38.88
2022-12-23T20:10:14.309Z,36.47
2022-12-23T20:12:41.551Z,35.10
2022-12-23T20:15:09.152Z,30.30
2022-12-23T20:17:38.124Z,26.50
2022-12-23T20:20:06.986Z,23.10
2022-12-23T20:22:34.198Z,27.83
2022-12-23T20:25:01.969Z,15.15
2022-12-23T20:27:29.286Z,22.03
2022-12-23T20:29:56.536Z,24.58
2022-12-23T20:32:23.901Z,18.40
2022-12-23T20:34:51.192Z,16.85
2022-12-23T20:37:18.513Z,18.23
2022-12-23T20:39:45.797Z,15.53
2022-12-23T20:42:13.367Z,19.30
2022-12-23T20:44:40.638Z,13.18
2022-12-23T20:47:08.643Z,16.52
2022-12-23T20:49:36.396Z,18.52
2022-12-23T20:52:03.703Z,14.83
2022-12-23T20:54:33.659Z,14.68
2022-12-23T20:57:02.434Z,23.00
2022-12-23T20:59:30.004Z,20.65
2022-12-23T21:01:59.201Z,17.83
2022-12-23T21:04:26.737Z,13.20
2022-12-23T21:06:54.079Z,12.02
2022-12-23T21:09:21.387Z,19.75
2022-12-23T21:11:48.729Z,17.05
2022-12-23T21:14:16.863Z,19.25
2022-12-23T21:16:44.817Z,11.67
2022-12-23T21:19:16.834Z,16.05
2022-12-23T21:21:44.528Z,13.30
2022-12-23T21:24:12.272Z,11.93
2022-12-23T21:26:39.990Z,9.10
2022-12-23T21:29:08.605Z,17.30
2022-12-23T21:31:37.260Z,12.07
2022-12-23T21:34:04.807Z,11.73
2022-12-23T21:36:33.382Z,17.98
2022-12-23T21:39:00.813Z,16.33
2022-12-23T21:41:29.412Z,12.07
2022-12-23T21:43:57.541Z,14.60
2022-12-23T21:46:25.305Z,16.77
2022-12-23T21:48:52.588Z,12.30
2022-12-23T21:51:20.182Z,13.05
2022-12-23T21:53:48.543Z,15.03
2022-12-23T21:56:17.110Z,16.83
2022-12-23T21:58:44.641Z,15.48
2022-12-23T22:01:13.497Z,12.85
2022-12-23T22:03:41.261Z,13.15
2022-12-23T22:06:10.667Z,17.00
2022-12-23T22:08:38.873Z,14.90
2022-12-23T22:11:10.221Z,16.67
2022-12-23T22:13:38.264Z,13.88
2022-12-23T22:16:09.214Z,15.82
2022-12-23T22:18:37.388Z,10.60
2022-12-23T22:21:05.645Z,10.70
2022-12-23T22:23:33.002Z,15.10
2022-12-23T22:26:00.553Z,10.88
2022-12-23T22:28:27.925Z,10.82
2022-12-23T22:31:01.163Z,15.87
2022-12-23T22:33:28.434Z,17.42
2022-12-23T22:35:56.784Z,17.27
2022-12-23T22:38:24.133Z,16.17
2022-12-23T22:40:52.051Z,22.60
2022-12-23T22:43:20.011Z,21.00
2022-12-23T22:45:47.363Z,17.58
2022-12-23T22:48:14.859Z,16.15
2022-12-23T22:50:42.180Z,16.77
2022-12-23T22:53:10.192Z,18.70
2022-12-23T22:55:37.427Z,15.30
2022-12-23T22:58:04.665Z,17.48
2022-12-23T23:00:31.945Z,10.80
2022-12-23T23:02:59.289Z,12.10
2022-12-23T23:05:26.692Z,18.23
2022-12-23T23:07:54.446Z,15.57
2022-12-23T23:10:21.692Z,23.27
2022-12-23T23:12:48.955Z,20.88
2022-12-23T23:15:16.212Z,20.05
2022-12-23T23:17:43.556Z,20.85
2022-12-23T23:20:10.895Z,16.25
2022-12-23T23:22:38.215Z,19.05
2022-12-23T23:25:05.727Z,19.88
2022-12-23T23:27:33.015Z,18.45
2022-12-23T23:30:00.245Z,22.58
2022-12-23T23:32:27.562Z,20.27
2022-12-23T23:34:54.962Z,21.58
2022-12-23T23:37:22.211Z,23.13
2022-12-23T23:39:49.541Z,18.05
2022-12-23T23:42:17.835Z,25.85
2022-12-23T23:44:45.121Z,17.80
2022-12-23T23:47:12.683Z,24.60
2022-12-23T23:49:39.932Z,22.67
2022-12-23T23:52:07.175Z,31.65
2022-12-23T23:54:34.516Z,18.58
2022-12-23T23:57:01.774Z,21.20
2022-12-23T23:59:29.391Z,24.77
